createdAt,value
2023-06-08T00:00:21.254Z,18.30
2023-06-08T00:05:24.630Z,18.20
2023-06-08T00:10:27.709Z,18.20
2023-06-08T00:15:31.339Z,18.20
2023-06-08T00:20:36.034Z,18.20
2023-06-08T00:25:38.977Z,18.20
2023-06-08T00:30:41.768Z,18.30
2023-06-08T00:35:44.596Z,18.30
2023-06-08T00:40:47.684Z,18.30
2023-06-08T00:45:52.837Z,18.30
2023-06-08T00:50:58.648Z,18.30
2023-06-08T00:56:02.460Z,18.20
2023-06-08T01:01:06.091Z,18.20
2023-06-08T01:06:09.624Z,18.20
2023-06-08T01:11:47.376Z,18.20
2023-06-08T01:16:53.288Z,18.20
2023-06-08T01:22:28.232Z,18.20
2023-06-08T01:27:38.437Z,18.20
2023-06-08T01:32:42.476Z,18.20
2023-06-08T01:37:53.616Z,18.20
2023-06-08T01:42:57.071Z,18.10
2023-06-08T01:48:07.732Z,18.10
2023-06-08T01:53:12.353Z,18.20
2023-06-08T01:58:15.465Z,18.10
2023-06-08T02:03:18.431Z,18.10
2023-06-08T02:08:21.970Z,18.10
2023-06-08T02:13:24.958Z,18.20
2023-06-08T02:18:28.460Z,18.20
2023-06-08T02:23:31.571Z,18.20
2023-06-08T02:28:35.090Z,18.20
2023-06-08T02:33:38.733Z,18.20
2023-06-08T02:38:41.617Z,18.20
2023-06-08T02:43:44.545Z,18.20
2023-06-08T02:48:47.898Z,18.20
2023-06-08T02:53:51.047Z,18.20
2023-06-08T02:58:55.513Z,18.20
2023-06-08T03:03:58.618Z,18.20
2023-06-08T03:09:01.549Z,18.10
2023-06-08T03:14:04.693Z,18.10
2023-06-08T03:19:08.058Z,18.10
2023-06-08T03:24:11.693Z,18.10
2023-06-08T03:29:14.868Z,18.20
2023-06-08T03:34:18.924Z,18.20
2023-06-08T03:39:22.613Z,18.20
2023-06-08T03:44:25.656Z,18.30
2023-06-08T03:49:28.545Z,18.30
2023-06-08T03:54:32.084Z,18.40
2023-06-08T03:59:35.157Z,18.40
2023-06-08T04:04:40.549Z,18.40
2023-06-08T04:09:44.208Z,18.40
2023-06-08T04:14:47.087Z,18.40
2023-06-08T04:19:51.018Z,18.40
2023-06-08T04:24:54.062Z,18.50
2023-06-08T04:29:58.528Z,18.60
2023-06-08T04:35:01.560Z,18.60
2023-06-08T04:40:05.734Z,18.70
2023-06-08T04:45:09.685Z,18.70
2023-06-08T04:50:12.832Z,18.80
2023-06-08T04:55:15.965Z,18.90
2023-06-08T05:00:19.889Z,18.90
2023-06-08T05:05:22.816Z,18.90
2023-06-08T05:10:25.779Z,19.00
2023-06-08T05:15:31.875Z,19.00
2023-06-08T05:20:34.884Z,19.10
2023-06-08T05:25:38.614Z,19.20
2023-06-08T05:30:41.703Z,19.20
2023-06-08T05:35:44.618Z,19.30
2023-06-08T05:40:47.684Z,19.30
2023-06-08T05:45:50.600Z,19.40
2023-06-08T05:50:53.564Z,19.40
2023-06-08T05:55:56.670Z,19.30
2023-06-08T06:01:00.533Z,19.30
2023-06-08T06:06:03.649Z,19.30
2023-06-08T06:11:07.114Z,19.40
2023-06-08T06:16:10.635Z,19.40
2023-06-08T06:21:15.256Z,19.50
2023-06-08T06:26:18.143Z,19.50
2023-06-08T06:31:21.212Z,19.50
2023-06-08T06:36:24.743Z,19.50
2023-06-08T06:41:28.157Z,19.50
2023-06-08T06:46:31.075Z,19.60
2023-06-08T06:51:34.289Z,19.60
2023-06-08T06:56:37.169Z,19.70
2023-06-08T07:01:40.348Z,19.70
2023-06-08T07:06:44.235Z,19.70
2023-06-08T07:11:53.091Z,19.80
2023-06-08T07:17:05.298Z,19.90
2023-06-08T07:22:10.479Z,20.00
2023-06-08T07:27:27.375Z,20.10
2023-06-08T07:32:31.285Z,20.20
2023-06-08T07:37:37.459Z,20.20
2023-06-08T07:42:40.620Z,20.20
2023-06-08T07:47:43.823Z,20.10
2023-06-08T07:52:47.110Z,20.10
2023-06-08T07:57:49.989Z,20.10
2023-06-08T08:02:52.959Z,20.10
2023-06-08T08:07:56.300Z,20.20
2023-06-08T08:12:59.416Z,20.30
2023-06-08T08:18:03.267Z,20.30
2023-06-08T08:23:07.201Z,20.30
2023-06-08T08:28:10.029Z,20.40
2023-06-08T08:33:17.499Z,20.60
2023-06-08T08:38:20.728Z,20.70
2023-06-08T08:43:36.645Z,20.70
2023-06-08T08:48:46.887Z,20.70
2023-06-08T08:53:52.325Z,20.70
2023-06-08T08:58:56.039Z,20.70
2023-06-08T09:04:00.686Z,20.70
2023-06-08T09:09:04.715Z,20.80
2023-06-08T09:14:10.206Z,20.90
2023-06-08T09:19:13.677Z,21.10
2023-06-08T09:24:20.519Z,21.30
2023-06-08T09:29:39.216Z,21.50
2023-06-08T09:35:02.102Z,21.70
2023-06-08T09:40:07.456Z,21.80
2023-06-08T09:45:15.026Z,21.90
2023-06-08T09:50:20.186Z,21.90
2023-06-08T09:55:24.844Z,21.90
2023-06-08T10:00:30.203Z,21.90
2023-06-08T10:05:34.653Z,22.00
2023-06-08T10:10:39.351Z,22.20
2023-06-08T10:15:43.668Z,22.40
2023-06-08T10:20:47.174Z,22.50
2023-06-08T10:25:52.172Z,22.70
2023-06-08T10:30:55.064Z,22.80
2023-06-08T10:36:13.300Z,23.00
2023-06-08T10:41:39.537Z,23.10
2023-06-08T10:46:44.165Z,23.30
2023-06-08T10:51:47.118Z,23.50
2023-06-08T10:57:12.313Z,23.70
2023-06-08T11:02:17.634Z,23.80
2023-06-08T11:07:27.257Z,23.90
2023-06-08T11:12:31.423Z,24.10
2023-06-08T11:17:51.743Z,24.10
2023-06-08T11:22:54.976Z,24.30
2023-06-08T11:27:59.216Z,24.30
2023-06-08T11:33:09.846Z,24.30
2023-06-08T11:38:13.213Z,24.30
2023-06-08T11:43:16.820Z,24.50
2023-06-08T11:48:24.553Z,24.30
2023-06-08T11:53:28.082Z,24.00
2023-06-08T11:58:34.018Z,23.70
2023-06-08T12:03:49.646Z,23.30
2023-06-08T12:08:53.816Z,23.10
2023-06-08T12:13:57.344Z,22.90
2023-06-08T12:19:00.900Z,22.70
2023-06-08T12:24:04.531Z,22.50
2023-06-08T12:29:10.904Z,22.00
2023-06-08T12:34:14.001Z,21.50
2023-06-08T12:39:17.344Z,20.90
2023-06-08T12:44:20.542Z,20.60
2023-06-08T12:49:24.127Z,20.40
2023-06-08T12:54:27.165Z,20.20
2023-06-08T12:59:30.907Z,20.10
2023-06-08T13:04:34.118Z,20.10
2023-06-08T13:09:39.464Z,20.10
2023-06-08T13:14:42.549Z,20.20
2023-06-08T13:19:46.623Z,20.30
2023-06-08T13:24:50.248Z,20.40
2023-06-08T13:29:53.206Z,20.50
2023-06-08T13:34:59.496Z,20.60
2023-06-08T13:40:02.539Z,20.70
2023-06-08T13:45:06.670Z,20.90
2023-06-08T13:50:11.949Z,21.10
2023-06-08T13:55:15.383Z,21.40
2023-06-08T14:00:18.789Z,21.50
2023-06-08T14:05:22.143Z,21.70
2023-06-08T14:10:25.394Z,22.00
2023-06-08T14:15:28.341Z,22.20
2023-06-08T14:20:35.198Z,22.30
2023-06-08T14:25:38.087Z,22.40
2023-06-08T14:30:42.870Z,22.50
2023-06-08T14:35:47.225Z,22.60
2023-06-08T14:40:50.453Z,22.80
2023-06-08T14:45:53.362Z,23.10
2023-06-08T14:50:57.227Z,23.50
2023-06-08T14:56:00.207Z,23.80
2023-06-08T15:01:03.100Z,24.10
2023-06-08T15:06:06.322Z,24.30
2023-06-08T15:11:10.127Z,24.30
2023-06-08T15:16:13.317Z,24.10
2023-06-08T15:21:16.457Z,24.10
2023-06-08T15:26:19.471Z,24.00
2023-06-08T15:31:23.114Z,24.00
2023-06-08T15:36:26.495Z,23.90
2023-06-08T15:41:29.654Z,24.10
2023-06-08T15:46:35.163Z,24.50
2023-06-08T15:51:43.325Z,25.10
2023-06-08T15:56:46.371Z,25.70
2023-06-08T16:01:49.273Z,26.00
2023-06-08T16:06:52.249Z,26.10
2023-06-08T16:11:55.191Z,26.10
2023-06-08T16:16:58.426Z,25.90
2023-06-08T16:22:04.236Z,25.60
2023-06-08T16:27:07.503Z,25.10
2023-06-08T16:32:11.140Z,24.50
2023-06-08T16:37:14.148Z,24.00
2023-06-08T16:42:19.660Z,23.60
2023-06-08T16:47:25.453Z,23.30
2023-06-08T16:52:28.464Z,23.10
2023-06-08T16:57:33.748Z,22.90
2023-06-08T17:02:37.393Z,22.70
2023-06-08T17:07:42.910Z,22.60
2023-06-08T17:12:46.103Z,22.50
2023-06-08T17:17:49.113Z,22.40
2023-06-08T17:22:52.230Z,22.30
2023-06-08T17:27:55.342Z,22.30
2023-06-08T17:32:59.497Z,22.20
2023-06-08T17:38:02.499Z,22.20
2023-06-08T17:43:05.430Z,22.10
2023-06-08T17:48:08.431Z,22.10
2023-06-08T17:53:13.444Z,22.00
2023-06-08T17:58:17.067Z,21.90
2023-06-08T18:03:20.117Z,21.80
2023-06-08T18:08:23.289Z,21.80
2023-06-08T18:13:26.795Z,21.60
2023-06-08T18:18:29.775Z,21.60
2023-06-08T18:23:32.964Z,21.40
2023-06-08T18:28:36.148Z,21.30
2023-06-08T18:33:39.848Z,21.20
2023-06-08T18:38:42.903Z,21.10
2023-06-08T18:43:46.190Z,21.10
2023-06-08T18:48:49.054Z,21.00
2023-06-08T18:53:52.439Z,20.80
2023-06-08T18:58:56.690Z,20.70
2023-06-08T19:03:59.992Z,20.60
2023-06-08T19:09:03.178Z,20.50
2023-06-08T19:14:06.122Z,20.50
2023-06-08T19:19:09.490Z,20.30
2023-06-08T19:24:12.879Z,20.30
2023-06-08T19:29:16.032Z,20.20
2023-06-08T19:34:20.311Z,20.10
2023-06-08T19:39:23.625Z,20.00
2023-06-08T19:44:26.846Z,20.00
2023-06-08T19:49:31.894Z,19.90
2023-06-08T19:54:34.854Z,19.70
2023-06-08T19:59:39.888Z,19.70
2023-06-08T20:04:42.797Z,19.60
2023-06-08T20:09:46.528Z,19.50
2023-06-08T20:14:49.330Z,19.50
2023-06-08T20:19:53.918Z,19.50
2023-06-08T20:24:57.651Z,19.40
2023-06-08T20:30:00.602Z,19.40
2023-06-08T20:35:06.878Z,19.40
2023-06-08T20:40:12.236Z,19.40
2023-06-08T20:45:15.131Z,19.40
2023-06-08T20:50:18.202Z,19.40
2023-06-08T20:55:22.656Z,19.40
2023-06-08T21:00:25.907Z,19.30
2023-06-08T21:05:32.489Z,19.20
2023-06-08T21:10:37.008Z,19.20
2023-06-08T21:15:39.895Z,19.30
2023-06-08T21:20:42.736Z,19.30
2023-06-08T21:25:45.641Z,19.30
2023-06-08T21:30:48.689Z,19.30
2023-06-08T21:36:09.523Z,19.30
2023-06-08T21:41:13.697Z,19.40
2023-06-08T21:46:16.522Z,19.40
2023-06-08T21:51:19.558Z,19.50
2023-06-08T21:56:22.704Z,19.50
2023-06-08T22:01:26.818Z,19.50
2023-06-08T22:06:30.026Z,19.50
2023-06-08T22:11:33.237Z,19.50
2023-06-08T22:16:38.785Z,19.50
2023-06-08T22:21:42.192Z,19.50
2023-06-08T22:26:46.846Z,19.50
2023-06-08T22:31:50.018Z,19.50
2023-06-08T22:36:53.391Z,19.50
2023-06-08T22:41:56.165Z,19.50
2023-06-08T22:47:00.824Z,19.60
2023-06-08T22:52:04.216Z,19.60
2023-06-08T22:57:07.877Z,19.50
2023-06-08T23:02:10.994Z,19.50
2023-06-08T23:07:16.078Z,19.40
2023-06-08T23:12:20.240Z,19.40
2023-06-08T23:17:26.531Z,19.40
2023-06-08T23:22:30.608Z,19.40
2023-06-08T23:27:34.313Z,19.40
2023-06-08T23:32:37.467Z,19.40
2023-06-08T23:37:40.911Z,19.40
2023-06-08T23:42:44.080Z,19.50
2023-06-08T23:47:47.129Z,19.50
2023-06-08T23:52:49.971Z,19.50
2023-06-08T23:57:53.103Z,19.50
